sensor_id;sensor_type;location;lat;lon;timestamp;P1;durP1;ratioP1;P2;durP2;ratioP2
12228;SDS011;6177;52.402;9.800;2023-10-19T00:01:13;16.13;;;14.83;;
12228;SDS011;6177;52.402;9.800;2023-10-19T00:03:41;16.10;;;14.70;;
12228;SDS011;6177;52.402;9.800;2023-10-19T00:06:07;17.40;;;15.87;;
12228;SDS011;6177;52.402;9.800;2023-10-19T00:08:32;17.23;;;15.73;;
12228;SDS011;6177;52.402;9.800;2023-10-19T00:11:07;16.90;;;15.47;;
12228;SDS011;6177;52.402;9.800;2023-10-19T00:13:36;16.80;;;15.23;;
12228;SDS011;6177;52.402;9.800;2023-10-19T00:16:06;17.17;;;15.53;;
12228;SDS011;6177;52.402;9.800;2023-10-19T00:18:42;17.33;;;15.83;;
12228;SDS011;6177;52.402;9.800;2023-10-19T00:21:08;18.63;;;17.03;;
12228;SDS011;6177;52.402;9.800;2023-10-19T00:23:51;18.17;;;16.53;;
12228;SDS011;6177;52.402;9.800;2023-10-19T00:26:22;16.73;;;15.40;;
12228;SDS011;6177;52.402;9.800;2023-10-19T00:28:56;18.47;;;16.90;;
12228;SDS011;6177;52.402;9.800;2023-10-19T00:31:26;19.10;;;17.30;;
12228;SDS011;6177;52.402;9.800;2023-10-19T00:33:53;19.00;;;17.40;;
12228;SDS011;6177;52.402;9.800;2023-10-19T00:36:20;20.63;;;18.47;;
12228;SDS011;6177;52.402;9.800;2023-10-19T00:38:46;19.33;;;17.63;;
12228;SDS011;6177;52.402;9.800;2023-10-19T00:41:16;19.30;;;17.60;;
12228;SDS011;6177;52.402;9.800;2023-10-19T00:43:47;19.10;;;17.40;;
12228;SDS011;6177;52.402;9.800;2023-10-19T00:46:23;18.67;;;16.80;;
12228;SDS011;6177;52.402;9.800;2023-10-19T00:48:57;19.47;;;17.67;;
12228;SDS011;6177;52.402;9.800;2023-10-19T00:51:26;19.87;;;18.23;;
12228;SDS011;6177;52.402;9.800;2023-10-19T00:56:36;21.00;;;18.97;;
12228;SDS011;6177;52.402;9.800;2023-10-19T00:59:02;21.03;;;19.13;;
12228;SDS011;6177;52.402;9.800;2023-10-19T01:01:41;20.03;;;18.20;;
12228;SDS011;6177;52.402;9.800;2023-10-19T01:04:13;22.30;;;20.27;;
12228;SDS011;6177;52.402;9.800;2023-10-19T01:06:43;21.33;;;19.20;;
12228;SDS011;6177;52.402;9.800;2023-10-19T01:09:26;21.13;;;19.33;;
12228;SDS011;6177;52.402;9.800;2023-10-19T01:12:00;21.70;;;19.60;;
12228;SDS011;6177;52.402;9.800;2023-10-19T01:14:31;22.27;;;20.27;;
12228;SDS011;6177;52.402;9.800;2023-10-19T01:16:59;22.57;;;20.37;;
12228;SDS011;6177;52.402;9.800;2023-10-19T01:19:26;22.60;;;20.50;;
12228;SDS011;6177;52.402;9.800;2023-10-19T01:21:52;23.13;;;20.93;;
12228;SDS011;6177;52.402;9.800;2023-10-19T01:24:24;23.47;;;21.37;;
12228;SDS011;6177;52.402;9.800;2023-10-19T01:27:10;23.13;;;20.93;;
12228;SDS011;6177;52.402;9.800;2023-10-19T01:29:35;24.23;;;21.83;;
12228;SDS011;6177;52.402;9.800;2023-10-19T01:32:03;22.73;;;20.67;;
12228;SDS011;6177;52.402;9.800;2023-10-19T01:34:38;22.90;;;20.63;;
12228;SDS011;6177;52.402;9.800;2023-10-19T01:37:03;21.80;;;19.73;;
12228;SDS011;6177;52.402;9.800;2023-10-19T01:39:30;23.87;;;21.67;;
12228;SDS011;6177;52.402;9.800;2023-10-19T01:41:57;23.17;;;20.90;;
12228;SDS011;6177;52.402;9.800;2023-10-19T01:44:24;23.67;;;21.30;;
12228;SDS011;6177;52.402;9.800;2023-10-19T01:46:50;22.40;;;20.27;;
12228;SDS011;6177;52.402;9.800;2023-10-19T01:49:16;22.20;;;20.30;;
12228;SDS011;6177;52.402;9.800;2023-10-19T01:51:54;22.73;;;20.83;;
12228;SDS011;6177;52.402;9.800;2023-10-19T01:54:23;24.10;;;21.73;;
12228;SDS011;6177;52.402;9.800;2023-10-19T01:56:52;22.03;;;20.03;;
12228;SDS011;6177;52.402;9.800;2023-10-19T01:59:25;21.73;;;19.73;;
12228;SDS011;6177;52.402;9.800;2023-10-19T02:01:56;22.07;;;19.90;;
12228;SDS011;6177;52.402;9.800;2023-10-19T02:04:22;23.47;;;21.03;;
12228;SDS011;6177;52.402;9.800;2023-10-19T02:06:49;21.07;;;19.27;;
12228;SDS011;6177;52.402;9.800;2023-10-19T02:09:17;23.00;;;20.90;;
12228;SDS011;6177;52.402;9.800;2023-10-19T02:11:47;23.73;;;21.43;;
12228;SDS011;6177;52.402;9.800;2023-10-19T02:14:24;22.73;;;20.63;;
12228;SDS011;6177;52.402;9.800;2023-10-19T02:16:52;23.23;;;20.97;;
12228;SDS011;6177;52.402;9.800;2023-10-19T02:19:22;23.80;;;21.33;;
12228;SDS011;6177;52.402;9.800;2023-10-19T02:21:50;25.67;;;22.93;;
12228;SDS011;6177;52.402;9.800;2023-10-19T02:24:21;24.67;;;22.27;;
12228;SDS011;6177;52.402;9.800;2023-10-19T02:26:49;23.27;;;21.00;;
12228;SDS011;6177;52.402;9.800;2023-10-19T02:29:16;24.53;;;22.40;;
12228;SDS011;6177;52.402;9.800;2023-10-19T02:31:44;23.17;;;21.07;;
12228;SDS011;6177;52.402;9.800;2023-10-19T02:34:11;26.03;;;23.63;;
12228;SDS011;6177;52.402;9.800;2023-10-19T02:36:41;25.47;;;23.17;;
12228;SDS011;6177;52.402;9.800;2023-10-19T02:39:08;25.53;;;22.97;;
12228;SDS011;6177;52.402;9.800;2023-10-19T02:41:39;25.73;;;23.30;;
12228;SDS011;6177;52.402;9.800;2023-10-19T02:44:10;24.77;;;22.47;;
12228;SDS011;6177;52.402;9.800;2023-10-19T02:46:45;24.97;;;22.60;;
12228;SDS011;6177;52.402;9.800;2023-10-19T02:49:12;25.30;;;23.00;;
12228;SDS011;6177;52.402;9.800;2023-10-19T02:51:42;26.77;;;24.07;;
12228;SDS011;6177;52.402;9.800;2023-10-19T02:54:11;26.20;;;23.63;;
12228;SDS011;6177;52.402;9.800;2023-10-19T02:56:48;25.30;;;22.77;;
12228;SDS011;6177;52.402;9.800;2023-10-19T02:59:21;25.50;;;22.80;;
12228;SDS011;6177;52.402;9.800;2023-10-19T03:01:52;26.33;;;23.53;;
12228;SDS011;6177;52.402;9.800;2023-10-19T03:04:27;26.50;;;23.87;;
12228;SDS011;6177;52.402;9.800;2023-10-19T03:06:55;28.23;;;25.40;;
12228;SDS011;6177;52.402;9.800;2023-10-19T03:09:21;26.13;;;23.40;;
12228;SDS011;6177;52.402;9.800;2023-10-19T03:11:50;30.90;;;25.83;;
12228;SDS011;6177;52.402;9.800;2023-10-19T03:14:20;29.33;;;26.33;;
12228;SDS011;6177;52.402;9.800;2023-10-19T03:16:45;27.30;;;24.60;;
12228;SDS011;6177;52.402;9.800;2023-10-19T03:19:11;27.60;;;24.87;;
12228;SDS011;6177;52.402;9.800;2023-10-19T03:21:38;28.50;;;25.60;;
12228;SDS011;6177;52.402;9.800;2023-10-19T03:24:14;28.00;;;25.30;;
12228;SDS011;6177;52.402;9.800;2023-10-19T03:26:59;28.23;;;25.53;;
12228;SDS011;6177;52.402;9.800;2023-10-19T03:29:25;29.20;;;26.13;;
12228;SDS011;6177;52.402;9.800;2023-10-19T03:31:57;28.33;;;25.60;;
12228;SDS011;6177;52.402;9.800;2023-10-19T03:34:24;27.97;;;25.13;;
12228;SDS011;6177;52.402;9.800;2023-10-19T03:36:50;37.47;;;26.50;;
12228;SDS011;6177;52.402;9.800;2023-10-19T03:39:20;28.27;;;25.27;;
12228;SDS011;6177;52.402;9.800;2023-10-19T03:41:46;29.67;;;26.57;;
12228;SDS011;6177;52.402;9.800;2023-10-19T03:44:16;29.70;;;25.83;;
12228;SDS011;6177;52.402;9.800;2023-10-19T03:46:49;26.90;;;24.33;;
12228;SDS011;6177;52.402;9.800;2023-10-19T03:49:19;28.13;;;25.20;;
12228;SDS011;6177;52.402;9.800;2023-10-19T03:51:45;29.73;;;26.73;;
12228;SDS011;6177;52.402;9.800;2023-10-19T03:54:48;28.23;;;25.37;;
12228;SDS011;6177;52.402;9.800;2023-10-19T03:57:15;27.60;;;24.93;;
12228;SDS011;6177;52.402;9.800;2023-10-19T03:59:45;27.63;;;24.97;;
12228;SDS011;6177;52.402;9.800;2023-10-19T04:02:12;28.40;;;25.60;;
12228;SDS011;6177;52.402;9.800;2023-10-19T04:04:45;28.80;;;25.83;;
12228;SDS011;6177;52.402;9.800;2023-10-19T04:07:14;29.10;;;26.00;;
12228;SDS011;6177;52.402;9.800;2023-10-19T04:09:55;28.77;;;25.97;;
12228;SDS011;6177;52.402;9.800;2023-10-19T04:12:26;28.43;;;25.57;;
12228;SDS011;6177;52.402;9.800;2023-10-19T04:14:56;28.87;;;25.97;;
12228;SDS011;6177;52.402;9.800;2023-10-19T04:17:22;31.23;;;27.00;;
12228;SDS011;6177;52.402;9.800;2023-10-19T04:19:52;27.03;;;24.43;;
12228;SDS011;6177;52.402;9.800;2023-10-19T04:22:18;26.83;;;24.17;;
12228;SDS011;6177;52.402;9.800;2023-10-19T04:24:50;27.40;;;24.60;;
12228;SDS011;6177;52.402;9.800;2023-10-19T04:27:16;27.80;;;24.77;;
12228;SDS011;6177;52.402;9.800;2023-10-19T04:29:41;27.93;;;25.17;;
12228;SDS011;6177;52.402;9.800;2023-10-19T04:32:09;25.63;;;23.00;;
12228;SDS011;6177;52.402;9.800;2023-10-19T04:34:37;26.03;;;23.43;;
12228;SDS011;6177;52.402;9.800;2023-10-19T04:37:02;26.67;;;24.03;;
12228;SDS011;6177;52.402;9.800;2023-10-19T04:39:28;26.43;;;23.83;;
12228;SDS011;6177;52.402;9.800;2023-10-19T04:41:55;26.47;;;23.70;;
12228;SDS011;6177;52.402;9.800;2023-10-19T04:44:21;27.07;;;24.23;;
12228;SDS011;6177;52.402;9.800;2023-10-19T04:46:48;24.53;;;22.23;;
12228;SDS011;6177;52.402;9.800;2023-10-19T04:49:14;26.53;;;23.83;;
12228;SDS011;6177;52.402;9.800;2023-10-19T04:51:41;25.77;;;23.17;;
12228;SDS011;6177;52.402;9.800;2023-10-19T04:54:09;25.13;;;22.73;;
12228;SDS011;6177;52.402;9.800;2023-10-19T04:56:35;27.03;;;24.00;;
12228;SDS011;6177;52.402;9.800;2023-10-19T04:59:03;26.23;;;23.53;;
12228;SDS011;6177;52.402;9.800;2023-10-19T05:01:30;23.67;;;21.37;;
12228;SDS011;6177;52.402;9.800;2023-10-19T05:03:59;24.40;;;21.83;;
12228;SDS011;6177;52.402;9.800;2023-10-19T05:06:25;24.17;;;21.80;;
12228;SDS011;6177;52.402;9.800;2023-10-19T05:08:51;23.47;;;21.10;;
12228;SDS011;6177;52.402;9.800;2023-10-19T05:11:20;24.13;;;21.63;;
12228;SDS011;6177;52.402;9.800;2023-10-19T05:13:45;21.80;;;19.80;;
12228;SDS011;6177;52.402;9.800;2023-10-19T05:16:11;21.50;;;19.50;;
12228;SDS011;6177;52.402;9.800;2023-10-19T05:18:37;23.67;;;21.27;;
12228;SDS011;6177;52.402;9.800;2023-10-19T05:21:03;20.93;;;19.10;;
12228;SDS011;6177;52.402;9.800;2023-10-19T05:23:30;21.30;;;19.30;;
12228;SDS011;6177;52.402;9.800;2023-10-19T05:26:02;21.60;;;19.50;;
12228;SDS011;6177;52.402;9.800;2023-10-19T05:28:30;19.00;;;17.37;;
12228;SDS011;6177;52.402;9.800;2023-10-19T05:30:56;19.87;;;18.07;;
12228;SDS011;6177;52.402;9.800;2023-10-19T05:33:24;20.10;;;18.33;;
12228;SDS011;6177;52.402;9.800;2023-10-19T05:35:50;20.23;;;18.43;;
12228;SDS011;6177;52.402;9.800;2023-10-19T05:38:17;20.17;;;18.17;;
12228;SDS011;6177;52.402;9.800;2023-10-19T05:40:45;20.70;;;18.60;;
12228;SDS011;6177;52.402;9.800;2023-10-19T05:43:11;19.80;;;17.80;;
12228;SDS011;6177;52.402;9.800;2023-10-19T05:45:37;19.30;;;17.50;;
12228;SDS011;6177;52.402;9.800;2023-10-19T05:48:04;18.77;;;16.97;;
12228;SDS011;6177;52.402;9.800;2023-10-19T05:50:35;17.93;;;16.30;;
12228;SDS011;6177;52.402;9.800;2023-10-19T05:53:01;18.23;;;16.63;;
12228;SDS011;6177;52.402;9.800;2023-10-19T05:55:28;17.60;;;16.00;;
12228;SDS011;6177;52.402;9.800;2023-10-19T05:57:54;18.63;;;16.97;;
12228;SDS011;6177;52.402;9.800;2023-10-19T06:00:20;17.80;;;16.10;;
12228;SDS011;6177;52.402;9.800;2023-10-19T06:02:47;17.80;;;16.23;;
12228;SDS011;6177;52.402;9.800;2023-10-19T06:05:16;18.20;;;16.40;;
12228;SDS011;6177;52.402;9.800;2023-10-19T06:07:43;17.47;;;15.93;;
12228;SDS011;6177;52.402;9.800;2023-10-19T06:10:13;16.70;;;15.30;;
12228;SDS011;6177;52.402;9.800;2023-10-19T06:12:46;16.70;;;15.13;;
12228;SDS011;6177;52.402;9.800;2023-10-19T06:15:13;16.37;;;14.97;;
12228;SDS011;6177;52.402;9.800;2023-10-19T06:17:41;18.73;;;16.87;;
12228;SDS011;6177;52.402;9.800;2023-10-19T06:20:07;16.70;;;15.30;;
12228;SDS011;6177;52.402;9.800;2023-10-19T06:22:35;16.97;;;15.47;;
12228;SDS011;6177;52.402;9.800;2023-10-19T06:25:01;17.40;;;15.70;;
12228;SDS011;6177;52.402;9.800;2023-10-19T06:27:29;16.73;;;15.23;;
12228;SDS011;6177;52.402;9.800;2023-10-19T06:29:56;16.23;;;14.83;;
12228;SDS011;6177;52.402;9.800;2023-10-19T06:32:22;17.93;;;16.03;;
12228;SDS011;6177;52.402;9.800;2023-10-19T06:34:48;16.23;;;14.73;;
12228;SDS011;6177;52.402;9.800;2023-10-19T06:37:13;15.63;;;14.23;;
12228;SDS011;6177;52.402;9.800;2023-10-19T06:39:40;14.40;;;13.17;;
12228;SDS011;6177;52.402;9.800;2023-10-19T06:42:08;15.63;;;14.13;;
12228;SDS011;6177;52.402;9.800;2023-10-19T06:44:40;13.17;;;12.17;;
12228;SDS011;6177;52.402;9.800;2023-10-19T06:47:07;13.50;;;12.40;;
12228;SDS011;6177;52.402;9.800;2023-10-19T06:49:33;13.10;;;12.00;;
12228;SDS011;6177;52.402;9.800;2023-10-19T06:51:59;12.77;;;11.77;;
12228;SDS011;6177;52.402;9.800;2023-10-19T06:54:25;13.60;;;12.40;;
12228;SDS011;6177;52.402;9.800;2023-10-19T06:56:53;12.77;;;11.67;;
12228;SDS011;6177;52.402;9.800;2023-10-19T06:59:18;12.43;;;11.43;;
12228;SDS011;6177;52.402;9.800;2023-10-19T07:01:44;13.47;;;12.27;;
12228;SDS011;6177;52.402;9.800;2023-10-19T07:04:12;12.00;;;11.10;;
12228;SDS011;6177;52.402;9.800;2023-10-19T07:06:38;11.00;;;10.20;;
12228;SDS011;6177;52.402;9.800;2023-10-19T07:09:04;11.67;;;10.73;;
12228;SDS011;6177;52.402;9.800;2023-10-19T07:11:31;12.07;;;11.07;;
12228;SDS011;6177;52.402;9.800;2023-10-19T07:13:59;10.60;;;9.90;;
12228;SDS011;6177;52.402;9.800;2023-10-19T07:16:25;11.00;;;10.10;;
12228;SDS011;6177;52.402;9.800;2023-10-19T07:18:51;9.90;;;9.13;;
12228;SDS011;6177;52.402;9.800;2023-10-19T07:21:18;11.13;;;10.23;;
12228;SDS011;6177;52.402;9.800;2023-10-19T07:23:46;12.17;;;11.17;;
12228;SDS011;6177;52.402;9.800;2023-10-19T07:26:14;11.23;;;10.33;;
12228;SDS011;6177;52.402;9.800;2023-10-19T07:28:40;10.93;;;10.03;;
12228;SDS011;6177;52.402;9.800;2023-10-19T07:31:07;10.73;;;9.93;;
12228;SDS011;6177;52.402;9.800;2023-10-19T07:33:38;10.00;;;9.30;;
12228;SDS011;6177;52.402;9.800;2023-10-19T07:36:12;10.27;;;9.53;;
12228;SDS011;6177;52.402;9.800;2023-10-19T07:38:39;10.17;;;9.43;;
12228;SDS011;6177;52.402;9.800;2023-10-19T07:41:07;9.37;;;8.77;;
12228;SDS011;6177;52.402;9.800;2023-10-19T07:43:35;8.27;;;7.77;;
12228;SDS011;6177;52.402;9.800;2023-10-19T07:46:00;8.07;;;7.47;;
12228;SDS011;6177;52.402;9.800;2023-10-19T07:48:26;7.73;;;7.20;;
12228;SDS011;6177;52.402;9.800;2023-10-19T07:50:52;6.93;;;6.53;;
12228;SDS011;6177;52.402;9.800;2023-10-19T07:53:18;7.20;;;6.80;;
12228;SDS011;6177;52.402;9.800;2023-10-19T07:55:44;6.40;;;6.03;;
12228;SDS011;6177;52.402;9.800;2023-10-19T07:58:10;6.63;;;6.33;;
12228;SDS011;6177;52.402;9.800;2023-10-19T08:00:36;6.40;;;6.00;;
12228;SDS011;6177;52.402;9.800;2023-10-19T08:03:03;6.37;;;5.97;;
12228;SDS011;6177;52.402;9.800;2023-10-19T08:05:29;5.70;;;5.40;;
12228;SDS011;6177;52.402;9.800;2023-10-19T08:07:55;5.57;;;5.27;;
12228;SDS011;6177;52.402;9.800;2023-10-19T08:10:23;4.97;;;4.77;;
12228;SDS011;6177;52.402;9.800;2023-10-19T08:12:50;5.57;;;5.23;;
12228;SDS011;6177;52.402;9.800;2023-10-19T08:15:17;5.03;;;4.83;;
12228;SDS011;6177;52.402;9.800;2023-10-19T08:17:45;6.33;;;5.93;;
12228;SDS011;6177;52.402;9.800;2023-10-19T08:20:13;4.97;;;4.77;;
12228;SDS011;6177;52.402;9.800;2023-10-19T08:22:48;5.00;;;4.80;;
12228;SDS011;6177;52.402;9.800;2023-10-19T08:25:15;4.70;;;4.50;;
12228;SDS011;6177;52.402;9.800;2023-10-19T08:27:42;5.63;;;5.20;;
12228;SDS011;6177;52.402;9.800;2023-10-19T08:30:12;4.93;;;4.73;;
12228;SDS011;6177;52.402;9.800;2023-10-19T08:32:41;4.53;;;4.43;;
12228;SDS011;6177;52.402;9.800;2023-10-19T08:35:07;5.47;;;5.20;;
12228;SDS011;6177;52.402;9.800;2023-10-19T08:37:37;4.70;;;4.50;;
12228;SDS011;6177;52.402;9.800;2023-10-19T08:40:05;4.90;;;4.60;;
12228;SDS011;6177;52.402;9.800;2023-10-19T08:42:43;5.43;;;5.13;;
12228;SDS011;6177;52.402;9.800;2023-10-19T08:45:11;4.83;;;4.63;;
12228;SDS011;6177;52.402;9.800;2023-10-19T08:47:58;5.63;;;5.40;;
12228;SDS011;6177;52.402;9.800;2023-10-19T08:50:30;5.30;;;5.00;;
12228;SDS011;6177;52.402;9.800;2023-10-19T08:53:03;5.03;;;4.83;;
12228;SDS011;6177;52.402;9.800;2023-10-19T08:55:30;5.23;;;5.03;;
12228;SDS011;6177;52.402;9.800;2023-10-19T08:57:56;5.00;;;4.80;;
12228;SDS011;6177;52.402;9.800;2023-10-19T09:00:25;5.00;;;4.80;;
12228;SDS011;6177;52.402;9.800;2023-10-19T09:02:52;5.27;;;5.07;;
12228;SDS011;6177;52.402;9.800;2023-10-19T09:05:19;5.37;;;5.17;;
12228;SDS011;6177;52.402;9.800;2023-10-19T09:07:48;5.47;;;5.17;;
12228;SDS011;6177;52.402;9.800;2023-10-19T09:10:28;5.50;;;5.20;;
12228;SDS011;6177;52.402;9.800;2023-10-19T09:13:04;6.03;;;5.73;;
12228;SDS011;6177;52.402;9.800;2023-10-19T09:15:33;5.50;;;5.20;;
12228;SDS011;6177;52.402;9.800;2023-10-19T09:20:48;6.20;;;5.90;;
12228;SDS011;6177;52.402;9.800;2023-10-19T09:23:47;5.77;;;5.47;;
12228;SDS011;6177;52.402;9.800;2023-10-19T09:26:12;5.33;;;5.13;;
12228;SDS011;6177;52.402;9.800;2023-10-19T09:28:39;5.57;;;5.27;;
12228;SDS011;6177;52.402;9.800;2023-10-19T09:31:05;5.87;;;5.57;;
12228;SDS011;6177;52.402;9.800;2023-10-19T09:33:35;5.73;;;5.50;;
12228;SDS011;6177;52.402;9.800;2023-10-19T09:36:02;5.50;;;5.30;;
12228;SDS011;6177;52.402;9.800;2023-10-19T09:38:30;6.10;;;5.80;;
12228;SDS011;6177;52.402;9.800;2023-10-19T09:40:55;6.07;;;5.77;;
12228;SDS011;6177;52.402;9.800;2023-10-19T09:46:00;6.53;;;6.17;;
12228;SDS011;6177;52.402;9.800;2023-10-19T09:48:26;5.57;;;5.27;;
12228;SDS011;6177;52.402;9.800;2023-10-19T09:50:54;5.50;;;5.30;;
12228;SDS011;6177;52.402;9.800;2023-10-19T09:53:27;5.80;;;5.53;;
12228;SDS011;6177;52.402;9.800;2023-10-19T09:55:56;6.70;;;6.30;;
12228;SDS011;6177;52.402;9.800;2023-10-19T09:58:25;8.37;;;7.67;;
12228;SDS011;6177;52.402;9.800;2023-10-19T10:00:54;6.60;;;6.20;;
12228;SDS011;6177;52.402;9.800;2023-10-19T10:03:41;6.70;;;6.30;;
12228;SDS011;6177;52.402;9.800;2023-10-19T10:06:15;7.17;;;6.57;;
12228;SDS011;6177;52.402;9.800;2023-10-19T10:08:44;7.00;;;6.57;;
12228;SDS011;6177;52.402;9.800;2023-10-19T10:11:17;5.50;;;5.20;;
12228;SDS011;6177;52.402;9.800;2023-10-19T10:13:48;6.47;;;6.17;;
12228;SDS011;6177;52.402;9.800;2023-10-19T10:16:18;6.30;;;6.00;;
12228;SDS011;6177;52.402;9.800;2023-10-19T10:18:48;6.33;;;6.03;;
12228;SDS011;6177;52.402;9.800;2023-10-19T10:21:22;5.37;;;5.17;;
12228;SDS011;6177;52.402;9.800;2023-10-19T10:26:24;5.87;;;5.63;;
12228;SDS011;6177;52.402;9.800;2023-10-19T10:29:07;6.20;;;5.90;;
12228;SDS011;6177;52.402;9.800;2023-10-19T10:31:53;6.27;;;5.97;;
12228;SDS011;6177;52.402;9.800;2023-10-19T10:39:31;5.97;;;5.67;;
12228;SDS011;6177;52.402;9.800;2023-10-19T10:41:57;5.93;;;5.63;;
12228;SDS011;6177;52.402;9.800;2023-10-19T10:47:18;6.40;;;6.10;;
12228;SDS011;6177;52.402;9.800;2023-10-19T10:52:27;5.57;;;5.37;;
12228;SDS011;6177;52.402;9.800;2023-10-19T10:54:57;6.27;;;5.87;;
12228;SDS011;6177;52.402;9.800;2023-10-19T10:57:24;6.80;;;6.47;;
12228;SDS011;6177;52.402;9.800;2023-10-19T11:00:00;6.27;;;5.90;;
12228;SDS011;6177;52.402;9.800;2023-10-19T11:02:29;6.90;;;6.60;;
12228;SDS011;6177;52.402;9.800;2023-10-19T11:04:54;6.60;;;6.20;;
12228;SDS011;6177;52.402;9.800;2023-10-19T11:07:20;7.20;;;6.80;;
12228;SDS011;6177;52.402;9.800;2023-10-19T11:09:46;6.07;;;5.87;;
12228;SDS011;6177;52.402;9.800;2023-10-19T11:12:12;6.67;;;6.27;;
12228;SDS011;6177;52.402;9.800;2023-10-19T11:14:55;5.90;;;5.67;;
12228;SDS011;6177;52.402;9.800;2023-10-19T11:17:23;6.20;;;5.80;;
12228;SDS011;6177;52.402;9.800;2023-10-19T11:19:58;6.23;;;5.93;;
12228;SDS011;6177;52.402;9.800;2023-10-19T11:22:25;5.63;;;5.33;;
12228;SDS011;6177;52.402;9.800;2023-10-19T11:24:54;5.93;;;5.67;;
12228;SDS011;6177;52.402;9.800;2023-10-19T11:27:22;5.87;;;5.57;;
12228;SDS011;6177;52.402;9.800;2023-10-19T11:29:57;6.17;;;5.87;;
12228;SDS011;6177;52.402;9.800;2023-10-19T11:32:24;6.47;;;6.17;;
12228;SDS011;6177;52.402;9.800;2023-10-19T11:34:53;7.10;;;6.70;;
12228;SDS011;6177;52.402;9.800;2023-10-19T11:37:19;6.77;;;6.37;;
12228;SDS011;6177;52.402;9.800;2023-10-19T11:39:45;7.30;;;6.83;;
12228;SDS011;6177;52.402;9.800;2023-10-19T11:42:11;7.67;;;7.17;;
12228;SDS011;6177;52.402;9.800;2023-10-19T11:44:37;7.80;;;7.37;;
12228;SDS011;6177;52.402;9.800;2023-10-19T11:47:03;7.30;;;6.90;;
12228;SDS011;6177;52.402;9.800;2023-10-19T11:49:29;7.37;;;7.00;;
12228;SDS011;6177;52.402;9.800;2023-10-19T11:51:54;7.97;;;7.47;;
12228;SDS011;6177;52.402;9.800;2023-10-19T11:54:21;7.87;;;7.27;;
12228;SDS011;6177;52.402;9.800;2023-10-19T11:56:46;7.80;;;7.40;;
12228;SDS011;6177;52.402;9.800;2023-10-19T11:59:14;8.63;;;7.93;;
12228;SDS011;6177;52.402;9.800;2023-10-19T12:01:40;8.10;;;7.60;;
12228;SDS011;6177;52.402;9.800;2023-10-19T12:04:07;8.73;;;8.20;;
12228;SDS011;6177;52.402;9.800;2023-10-19T12:06:34;8.97;;;8.37;;
12228;SDS011;6177;52.402;9.800;2023-10-19T12:09:00;9.00;;;8.40;;
12228;SDS011;6177;52.402;9.800;2023-10-19T12:11:40;9.50;;;8.60;;
12228;SDS011;6177;52.402;9.800;2023-10-19T12:14:09;8.63;;;7.90;;
12228;SDS011;6177;52.402;9.800;2023-10-19T12:16:40;8.57;;;7.87;;
12228;SDS011;6177;52.402;9.800;2023-10-19T12:19:06;8.77;;;8.03;;
12228;SDS011;6177;52.402;9.800;2023-10-19T12:21:34;9.60;;;9.00;;
12228;SDS011;6177;52.402;9.800;2023-10-19T12:24:03;9.93;;;9.23;;
12228;SDS011;6177;52.402;9.800;2023-10-19T12:26:30;9.70;;;9.00;;
12228;SDS011;6177;52.402;9.800;2023-10-19T12:28:56;10.10;;;9.40;;
12228;SDS011;6177;52.402;9.800;2023-10-19T12:31:22;9.80;;;9.10;;
12228;SDS011;6177;52.402;9.800;2023-10-19T12:33:48;10.53;;;9.50;;
12228;SDS011;6177;52.402;9.800;2023-10-19T12:36:14;9.53;;;8.60;;
12228;SDS011;6177;52.402;9.800;2023-10-19T12:38:49;10.10;;;9.40;;
12228;SDS011;6177;52.402;9.800;2023-10-19T12:41:15;10.97;;;10.17;;
12228;SDS011;6177;52.402;9.800;2023-10-19T12:43:42;11.97;;;10.83;;
12228;SDS011;6177;52.402;9.800;2023-10-19T12:46:08;10.90;;;9.90;;
12228;SDS011;6177;52.402;9.800;2023-10-19T12:48:34;10.37;;;9.67;;
12228;SDS011;6177;52.402;9.800;2023-10-19T12:51:09;10.73;;;9.97;;
12228;SDS011;6177;52.402;9.800;2023-10-19T12:53:37;10.40;;;9.57;;
12228;SDS011;6177;52.402;9.800;2023-10-19T12:56:04;11.50;;;10.60;;
12228;SDS011;6177;52.402;9.800;2023-10-19T12:58:31;11.83;;;10.93;;
12228;SDS011;6177;52.402;9.800;2023-10-19T13:00:58;11.50;;;10.60;;
12228;SDS011;6177;52.402;9.800;2023-10-19T13:03:24;11.20;;;10.33;;
12228;SDS011;6177;52.402;9.800;2023-10-19T13:05:52;11.30;;;10.40;;
12228;SDS011;6177;52.402;9.800;2023-10-19T13:08:18;10.97;;;9.97;;
12228;SDS011;6177;52.402;9.800;2023-10-19T13:10:46;12.00;;;10.97;;
12228;SDS011;6177;52.402;9.800;2023-10-19T13:13:14;11.73;;;10.83;;
12228;SDS011;6177;52.402;9.800;2023-10-19T13:15:44;11.37;;;10.50;;
12228;SDS011;6177;52.402;9.800;2023-10-19T13:18:10;12.17;;;11.00;;
12228;SDS011;6177;52.402;9.800;2023-10-19T13:20:37;12.00;;;11.10;;
12228;SDS011;6177;52.402;9.800;2023-10-19T13:23:04;11.23;;;10.43;;
12228;SDS011;6177;52.402;9.800;2023-10-19T13:25:37;12.30;;;11.20;;
12228;SDS011;6177;52.402;9.800;2023-10-19T13:28:15;11.60;;;10.50;;
12228;SDS011;6177;52.402;9.800;2023-10-19T13:30:45;12.33;;;11.43;;
12228;SDS011;6177;52.402;9.800;2023-10-19T13:33:15;13.03;;;11.97;;
12228;SDS011;6177;52.402;9.800;2023-10-19T13:35:42;11.97;;;11.10;;
12228;SDS011;6177;52.402;9.800;2023-10-19T13:38:09;12.17;;;11.17;;
12228;SDS011;6177;52.402;9.800;2023-10-19T13:40:38;13.17;;;12.07;;
12228;SDS011;6177;52.402;9.800;2023-10-19T13:43:04;13.30;;;12.30;;
12228;SDS011;6177;52.402;9.800;2023-10-19T13:45:32;12.87;;;11.87;;
12228;SDS011;6177;52.402;9.800;2023-10-19T13:48:02;13.53;;;12.23;;
12228;SDS011;6177;52.402;9.800;2023-10-19T13:50:29;13.57;;;12.27;;
12228;SDS011;6177;52.402;9.800;2023-10-19T13:52:55;14.50;;;13.20;;
12228;SDS011;6177;52.402;9.800;2023-10-19T13:55:25;13.80;;;12.53;;
12228;SDS011;6177;52.402;9.800;2023-10-19T13:57:52;15.57;;;14.23;;
12228;SDS011;6177;52.402;9.800;2023-10-19T14:00:20;16.50;;;14.90;;
12228;SDS011;6177;52.402;9.800;2023-10-19T14:02:51;15.43;;;13.87;;
12228;SDS011;6177;52.402;9.800;2023-10-19T14:05:17;16.27;;;14.90;;
12228;SDS011;6177;52.402;9.800;2023-10-19T14:07:44;16.67;;;15.17;;
12228;SDS011;6177;52.402;9.800;2023-10-19T14:10:12;17.30;;;15.73;;
12228;SDS011;6177;52.402;9.800;2023-10-19T14:12:38;16.63;;;15.13;;
12228;SDS011;6177;52.402;9.800;2023-10-19T14:15:12;17.43;;;15.90;;
12228;SDS011;6177;52.402;9.800;2023-10-19T14:17:39;18.00;;;16.33;;
12228;SDS011;6177;52.402;9.800;2023-10-19T14:20:05;20.10;;;18.20;;
12228;SDS011;6177;52.402;9.800;2023-10-19T14:22:31;18.57;;;16.67;;
12228;SDS011;6177;52.402;9.800;2023-10-19T14:25:00;18.53;;;16.73;;
12228;SDS011;6177;52.402;9.800;2023-10-19T14:27:26;19.23;;;17.50;;
12228;SDS011;6177;52.402;9.800;2023-10-19T14:29:52;20.43;;;18.37;;
12228;SDS011;6177;52.402;9.800;2023-10-19T14:32:17;19.73;;;17.83;;
12228;SDS011;6177;52.402;9.800;2023-10-19T14:34:43;20.03;;;17.97;;
12228;SDS011;6177;52.402;9.800;2023-10-19T14:37:09;20.60;;;18.67;;
12228;SDS011;6177;52.402;9.800;2023-10-19T14:39:34;20.87;;;18.77;;
12228;SDS011;6177;52.402;9.800;2023-10-19T14:42:00;22.63;;;20.23;;
12228;SDS011;6177;52.402;9.800;2023-10-19T14:44:26;20.73;;;18.73;;
12228;SDS011;6177;52.402;9.800;2023-10-19T14:46:52;22.43;;;20.07;;
12228;SDS011;6177;52.402;9.800;2023-10-19T14:49:18;23.00;;;20.73;;
12228;SDS011;6177;52.402;9.800;2023-10-19T14:51:44;22.73;;;20.27;;
12228;SDS011;6177;52.402;9.800;2023-10-19T14:54:09;22.83;;;20.53;;
12228;SDS011;6177;52.402;9.800;2023-10-19T14:56:36;22.17;;;19.87;;
12228;SDS011;6177;52.402;9.800;2023-10-19T14:59:02;24.40;;;21.90;;
12228;SDS011;6177;52.402;9.800;2023-10-19T15:01:30;24.13;;;21.23;;
12228;SDS011;6177;52.402;9.800;2023-10-19T15:03:56;22.80;;;20.47;;
12228;SDS011;6177;52.402;9.800;2023-10-19T15:06:22;22.57;;;20.27;;
12228;SDS011;6177;52.402;9.800;2023-10-19T15:08:47;26.20;;;22.33;;
12228;SDS011;6177;52.402;9.800;2023-10-19T15:11:17;27.03;;;23.20;;
12228;SDS011;6177;52.402;9.800;2023-10-19T15:13:44;28.67;;;24.83;;